Ever Lucky — 3FAE4 — position and weather

sailwx.info

Track history (hours):
 
Tides and Currents Weather Stations Pressure Air Temp Water Temp Dewpoint Dewpoint Depression Visibility Wind Speed Wind Dir Waves Ship Positions

Ever Lucky

Last reported at 2017-Dec-18 01:00 UTC. Time now 2017-Dec-18 20:32 UTC.
Position N 44°06' W 049°00'.

Length 335 m; draft 11.7 m.

Type: Ship (hazmat cat C). MMSI: 356407000.

Wind from 180 at 18 knots

Barometer 1008.0 mb
Air temperature 6.0 ° C
Visibility: greater than 27.0 NM
Dewpoint 0.9 ° C

Date/timePositionNaut miles runAvg speedWind from/ knotsBaromVisibWave heightAir tempDewpointWater temp
2017-Dec-18 01:00N 44°06' W 049°00'72520.7 180 / 181008.027.0 6.0 0.9
2017-Dec-16 14:00N 38°18' W 063°06'26321.9 250 / 561016.027.0 16.012.4
2017-Dec-16 02:00N 35°48' W 067°36'14123.5 230 / 321012.0 5.4 18.016.3
2017-Dec-15 20:00N 34°24' W 069°54'15822.5 220 / 151017.0 5.4 26.018.224.0
2017-Dec-15 13:00N 32°48' W 072°24'   250 / 231018.010.8 22.020.5
2017-Dec-13 03:00N 33°18' W 079°30'89 3.3 300 / 551011.027.0 10.0 5.7
2017-Dec-11 23:49N 31°58' W 080°16'714.9
2017-Dec-11 23:19N 31°55' W 080°24'5 8.9
2017-Dec-11 22:44N 31°56' W 080°30'2 9.0
2017-Dec-11 22:30N 31°56' W 080°32'5 9.3
2017-Dec-11 22:00N 31°56' W 080°38'5 9.1
2017-Dec-11 21:31N 31°58' W 080°43'815.4
2017-Dec-11 21:01N 32°02' W 080°50'611.0
2017-Dec-11 20:30N 32°03' W 080°56'5 9.4
2017-Dec-11 20:00N 32°05' W 081°01'3 5.4
2017-Dec-11 19:30N 32°05' W 081°04'2 4.1
2017-Dec-11 19:00N 32°06' W 081°06'2 4.5
2017-Dec-11 18:30N 32°08' W 081°08'1 1.2
2017-Dec-11 18:00N 32°08' W 081°09'0 0.0
2017-Dec-11 17:30N 32°08' W 081°09'0 0.0
2017-Dec-11 16:56N 32°08' W 081°09'0 0.0
2017-Dec-11 16:20N 32°08' W 081°09'0 0.0
2017-Dec-11 15:56N 32°08' W 081°09'0 0.0
2017-Dec-11 15:26N 32°08' W 081°09'0 0.0
2017-Dec-11 14:50N 32°08' W 081°09'0 0.0
2017-Dec-11 14:26N 32°08' W 081°09'0 0.0
2017-Dec-11 13:56N 32°08' W 081°09'0 0.0
2017-Dec-11 13:26N 32°08' W 081°09'0 0.0
2017-Dec-11 12:56N 32°08' W 081°09'0 0.0
2017-Dec-11 12:20N 32°08' W 081°09'0 0.0
2017-Dec-11 11:56N 32°08' W 081°09'0 0.0
2017-Dec-11 11:26N 32°08' W 081°09'0 0.0
2017-Dec-11 10:56N 32°08' W 081°09'0 0.0
2017-Dec-11 10:26N 32°08' W 081°09'0 0.0
2017-Dec-11 09:56N 32°08' W 081°09'0 0.0
2017-Dec-11 09:26N 32°08' W 081°09'0 0.0
2017-Dec-11 08:56N 32°08' W 081°09'0 0.0
2017-Dec-11 08:26N 32°08' W 081°09'0 0.0
2017-Dec-11 07:56N 32°08' W 081°09'0 0.0
2017-Dec-11 07:26N 32°08' W 081°09'0 0.0
2017-Dec-11 06:56N 32°08' W 081°09'0 0.0
2017-Dec-11 06:26N 32°08' W 081°09'0 0.0
2017-Dec-11 05:56N 32°08' W 081°09'0 0.0
2017-Dec-11 05:26N 32°08' W 081°09'0 0.0
2017-Dec-11 04:56N 32°08' W 081°09'0 0.0
2017-Dec-11 04:26N 32°08' W 081°09'0 0.0
2017-Dec-11 03:56N 32°08' W 081°09'0 0.0
2017-Dec-11 03:20N 32°08' W 081°09'0 0.0
2017-Dec-11 02:56N 32°08' W 081°09'0 0.0
2017-Dec-11 02:26N 32°08' W 081°09'0 0.0
2017-Dec-11 01:48N 32°08' W 081°09'0 0.2
2017-Dec-11 01:30N 32°08' W 081°08'1 2.0
2017-Dec-11 01:00N 32°07' W 081°08'3 5.9
2017-Dec-11 00:30N 32°05' W 081°06'2 4.8
2017-Dec-11 00:00N 32°05' W 081°03'3 5.8
2017-Dec-10 23:30N 32°05' W 080°59'5 9.6
2017-Dec-10 23:00N 32°02' W 080°55'510.5
2017-Dec-10 22:30N 32°02' W 080°49'612.8
2017-Dec-10 22:00N 31°58' W 080°43'3 6.5
2017-Dec-10 21:30N 31°56' W 080°39'2 3.6
2017-Dec-10 21:00N 31°56' W 080°37'4 7.6
2017-Dec-10 20:30N 31°57' W 080°33'1 0.6
2017-Dec-10 18:58N 31°57' W 080°32'0 0.1
2017-Dec-10 14:58N 31°57' W 080°32'0 0.1
2017-Dec-10 14:28N 31°57' W 080°32'0 0.1
2017-Dec-10 13:58N 31°57' W 080°32'0 0.0
2017-Dec-10 13:28N 31°57' W 080°32'0 0.0
2017-Dec-10 12:52N 31°57' W 080°32'0 0.1
2017-Dec-10 12:28N 31°57' W 080°32'0 0.0
2017-Dec-10 11:52N 31°57' W 080°32'0 0.0
2017-Dec-10 11:28N 31°57' W 080°32'0 0.0
2017-Dec-10 10:46N 31°57' W 080°32'0 0.0
2017-Dec-10 10:28N 31°57' W 080°32'0 0.0
2017-Dec-10 09:46N 31°57' W 080°32'0 0.1
2017-Dec-10 09:28N 31°57' W 080°32'0 0.0
2017-Dec-10 08:58N 31°57' W 080°32'0 0.0
2017-Dec-10 08:28N 31°57' W 080°32'0 0.1
2017-Dec-10 07:58N 31°57' W 080°32'0 0.0
2017-Dec-10 07:28N 31°57' W 080°32'0 0.0
2017-Dec-10 06:58N 31°57' W 080°32'0 0.0
2017-Dec-10 06:28N 31°57' W 080°32'0 0.0
2017-Dec-10 05:52N 31°57' W 080°32'0 0.0
2017-Dec-10 05:22N 31°57' W 080°32'0 0.0
2017-Dec-10 04:58N 31°57' W 080°32'0 0.0
2017-Dec-10 04:22N 31°57' W 080°32'0 0.0
2017-Dec-10 03:52N 31°57' W 080°32'0 0.0
2017-Dec-10 03:10N 31°57' W 080°32'0 0.0
2017-Dec-10 02:52N 31°57' W 080°32'0 0.0
2017-Dec-10 02:28N 31°57' W 080°32'0 0.1
2017-Dec-10 01:58N 31°57' W 080°32'0 0.0
2017-Dec-10 01:22N 31°57' W 080°32'0 0.0
2017-Dec-10 00:58N 31°57' W 080°32'0 0.1
2017-Dec-10 00:22N 31°57' W 080°32'0 0.0
2017-Dec-09 23:58N 31°57' W 080°32'0 0.0
2017-Dec-09 23:28N 31°57' W 080°32'1 2.0
2017-Dec-09 23:00N 31°57' W 080°31'4 8.8
2017-Dec-09 22:30N 31°56' W 080°26'27114.6
2017-Dec-09 04:00N 34°24' W 075°54'13911.4 050 / 311010.010.8 12.0
2017-Dec-08 15:48N 36°43' W 075°40'410.1
2017-Dec-08 15:26N 36°46' W 075°43'4 9.1
2017-Dec-08 14:58N 36°49' W 075°46'4 9.1
2017-Dec-08 14:30N 36°51' W 075°51'4 8.9
2017-Dec-08 14:00N 36°54' W 075°55'5 9.0
2017-Dec-08 13:30N 36°56' W 075°60'612.5
2017-Dec-08 13:00N 36°59' W 076°07'815.0
2017-Dec-08 12:30N 37°00' W 076°16'5 9.8
2017-Dec-08 12:00N 36°57' W 076°20'2 3.9
2017-Dec-08 11:30N 36°55' W 076°20'0 0.0
2017-Dec-08 11:00N 36°55' W 076°20'0 0.0
2017-Dec-08 10:29N 36°55' W 076°20'0 0.0
2017-Dec-08 09:59N 36°55' W 076°20'0 0.0
2017-Dec-08 09:29N 36°55' W 076°20'0 0.0
2017-Dec-08 08:59N 36°55' W 076°20'0 0.0
2017-Dec-08 08:29N 36°55' W 076°20'0 0.0
2017-Dec-08 07:59N 36°55' W 076°20'0 0.0
2017-Dec-08 07:29N 36°55' W 076°20'0 0.0
2017-Dec-08 06:59N 36°55' W 076°20'0 0.0
2017-Dec-08 06:29N 36°55' W 076°20'0 0.0
2017-Dec-08 05:59N 36°55' W 076°20'0 0.0
2017-Dec-08 05:29N 36°55' W 076°20'0 0.0
2017-Dec-08 04:59N 36°55' W 076°20'0 0.0
2017-Dec-08 04:29N 36°55' W 076°20'0 0.0
2017-Dec-08 03:56N 36°55' W 076°20'0 0.0
2017-Dec-08 03:23N 36°55' W 076°20'0 0.0
2017-Dec-08 02:57N 36°55' W 076°20'0 0.1
2017-Dec-08 02:30N 36°55' W 076°20'0 0.0
2017-Dec-08 02:00N 36°55' W 076°20'0 0.0
2017-Dec-08 01:30N 36°55' W 076°20'0 0.0
2017-Dec-08 01:00N 36°55' W 076°20'  
Track history (hours):
 
Tides and Currents Weather Stations Pressure Air Temp Water Temp Dewpoint Dewpoint Depression Visibility Wind Speed Wind Dir Waves Ship Positions

Ever Lucky

Last reported at 2017-Dec-18 01:00 UTC. Time now 2017-Dec-18 20:32 UTC.
Position N 44°06' W 049°00'.

Length 335 m; draft 11.7 m.

Type: Ship (hazmat cat C). MMSI: 356407000.

Wind from 180 at 18 knots

Barometer 1008.0 mb
Air temperature 6.0 ° C
Visibility: greater than 27.0 NM
Dewpoint 0.9 ° C

Date/timePositionNaut miles runAvg speedWind from/ knotsBaromVisibWave heightAir tempDewpointWater temp
2017-Dec-18 01:00N 44°06' W 049°00'72520.7 180 / 181008.027.0 6.0 0.9
2017-Dec-16 14:00N 38°18' W 063°06'26321.9 250 / 561016.027.0 16.012.4
2017-Dec-16 02:00N 35°48' W 067°36'14123.5 230 / 321012.0 5.4 18.016.3
2017-Dec-15 20:00N 34°24' W 069°54'15822.5 220 / 151017.0 5.4 26.018.224.0
2017-Dec-15 13:00N 32°48' W 072°24'   250 / 231018.010.8 22.020.5
2017-Dec-13 03:00N 33°18' W 079°30'89 3.3 300 / 551011.027.0 10.0 5.7
2017-Dec-11 23:49N 31°58' W 080°16'714.9
2017-Dec-11 23:19N 31°55' W 080°24'5 8.9
2017-Dec-11 22:44N 31°56' W 080°30'2 9.0
2017-Dec-11 22:30N 31°56' W 080°32'5 9.3
2017-Dec-11 22:00N 31°56' W 080°38'5 9.1
2017-Dec-11 21:31N 31°58' W 080°43'815.4
2017-Dec-11 21:01N 32°02' W 080°50'611.0
2017-Dec-11 20:30N 32°03' W 080°56'5 9.4
2017-Dec-11 20:00N 32°05' W 081°01'3 5.4
2017-Dec-11 19:30N 32°05' W 081°04'2 4.1
2017-Dec-11 19:00N 32°06' W 081°06'2 4.5
2017-Dec-11 18:30N 32°08' W 081°08'1 1.2
2017-Dec-11 18:00N 32°08' W 081°09'0 0.0
2017-Dec-11 17:30N 32°08' W 081°09'0 0.0
2017-Dec-11 16:56N 32°08' W 081°09'0 0.0
2017-Dec-11 16:20N 32°08' W 081°09'0 0.0
2017-Dec-11 15:56N 32°08' W 081°09'0 0.0
2017-Dec-11 15:26N 32°08' W 081°09'0 0.0
2017-Dec-11 14:50N 32°08' W 081°09'0 0.0
2017-Dec-11 14:26N 32°08' W 081°09'0 0.0
2017-Dec-11 13:56N 32°08' W 081°09'0 0.0
2017-Dec-11 13:26N 32°08' W 081°09'0 0.0
2017-Dec-11 12:56N 32°08' W 081°09'0 0.0
2017-Dec-11 12:20N 32°08' W 081°09'0 0.0
2017-Dec-11 11:56N 32°08' W 081°09'0 0.0
2017-Dec-11 11:26N 32°08' W 081°09'0 0.0
2017-Dec-11 10:56N 32°08' W 081°09'0 0.0
2017-Dec-11 10:26N 32°08' W 081°09'0 0.0
2017-Dec-11 09:56N 32°08' W 081°09'0 0.0
2017-Dec-11 09:26N 32°08' W 081°09'0 0.0
2017-Dec-11 08:56N 32°08' W 081°09'0 0.0
2017-Dec-11 08:26N 32°08' W 081°09'0 0.0
2017-Dec-11 07:56N 32°08' W 081°09'0 0.0
2017-Dec-11 07:26N 32°08' W 081°09'0 0.0
2017-Dec-11 06:56N 32°08' W 081°09'0 0.0
2017-Dec-11 06:26N 32°08' W 081°09'0 0.0
2017-Dec-11 05:56N 32°08' W 081°09'0 0.0
2017-Dec-11 05:26N 32°08' W 081°09'0 0.0
2017-Dec-11 04:56N 32°08' W 081°09'0 0.0
2017-Dec-11 04:26N 32°08' W 081°09'0 0.0
2017-Dec-11 03:56N 32°08' W 081°09'0 0.0
2017-Dec-11 03:20N 32°08' W 081°09'0 0.0
2017-Dec-11 02:56N 32°08' W 081°09'0 0.0
2017-Dec-11 02:26N 32°08' W 081°09'0 0.0
2017-Dec-11 01:48N 32°08' W 081°09'0 0.2
2017-Dec-11 01:30N 32°08' W 081°08'1 2.0
2017-Dec-11 01:00N 32°07' W 081°08'3 5.9
2017-Dec-11 00:30N 32°05' W 081°06'2 4.8
2017-Dec-11 00:00N 32°05' W 081°03'3 5.8
2017-Dec-10 23:30N 32°05' W 080°59'5 9.6
2017-Dec-10 23:00N 32°02' W 080°55'510.5
2017-Dec-10 22:30N 32°02' W 080°49'612.8
2017-Dec-10 22:00N 31°58' W 080°43'3 6.5
2017-Dec-10 21:30N 31°56' W 080°39'2 3.6
2017-Dec-10 21:00N 31°56' W 080°37'4 7.6
2017-Dec-10 20:30N 31°57' W 080°33'1 0.6
2017-Dec-10 18:58N 31°57' W 080°32'0 0.1
2017-Dec-10 14:58N 31°57' W 080°32'0 0.1
2017-Dec-10 14:28N 31°57' W 080°32'0 0.1
2017-Dec-10 13:58N 31°57' W 080°32'0 0.0
2017-Dec-10 13:28N 31°57' W 080°32'0 0.0
2017-Dec-10 12:52N 31°57' W 080°32'0 0.1
2017-Dec-10 12:28N 31°57' W 080°32'0 0.0
2017-Dec-10 11:52N 31°57' W 080°32'0 0.0
2017-Dec-10 11:28N 31°57' W 080°32'0 0.0
2017-Dec-10 10:46N 31°57' W 080°32'0 0.0
2017-Dec-10 10:28N 31°57' W 080°32'0 0.0
2017-Dec-10 09:46N 31°57' W 080°32'0 0.1
2017-Dec-10 09:28N 31°57' W 080°32'0 0.0
2017-Dec-10 08:58N 31°57' W 080°32'0 0.0
2017-Dec-10 08:28N 31°57' W 080°32'0 0.1
2017-Dec-10 07:58N 31°57' W 080°32'0 0.0
2017-Dec-10 07:28N 31°57' W 080°32'0 0.0
2017-Dec-10 06:58N 31°57' W 080°32'0 0.0
2017-Dec-10 06:28N 31°57' W 080°32'0 0.0
2017-Dec-10 05:52N 31°57' W 080°32'0 0.0
2017-Dec-10 05:22N 31°57' W 080°32'0 0.0
2017-Dec-10 04:58N 31°57' W 080°32'0 0.0
2017-Dec-10 04:22N 31°57' W 080°32'0 0.0
2017-Dec-10 03:52N 31°57' W 080°32'0 0.0
2017-Dec-10 03:10N 31°57' W 080°32'0 0.0
2017-Dec-10 02:52N 31°57' W 080°32'0 0.0
2017-Dec-10 02:28N 31°57' W 080°32'0 0.1
2017-Dec-10 01:58N 31°57' W 080°32'0 0.0
2017-Dec-10 01:22N 31°57' W 080°32'0 0.0
2017-Dec-10 00:58N 31°57' W 080°32'0 0.1
2017-Dec-10 00:22N 31°57' W 080°32'0 0.0
2017-Dec-09 23:58N 31°57' W 080°32'0 0.0
2017-Dec-09 23:28N 31°57' W 080°32'1 2.0
2017-Dec-09 23:00N 31°57' W 080°31'4 8.8
2017-Dec-09 22:30N 31°56' W 080°26'27114.6
2017-Dec-09 04:00N 34°24' W 075°54'13911.4 050 / 311010.010.8 12.0
2017-Dec-08 15:48N 36°43' W 075°40'410.1
2017-Dec-08 15:26N 36°46' W 075°43'4 9.1
2017-Dec-08 14:58N 36°49' W 075°46'4 9.1
2017-Dec-08 14:30N 36°51' W 075°51'4 8.9
2017-Dec-08 14:00N 36°54' W 075°55'5 9.0
2017-Dec-08 13:30N 36°56' W 075°60'612.5
2017-Dec-08 13:00N 36°59' W 076°07'815.0
2017-Dec-08 12:30N 37°00' W 076°16'5 9.8
2017-Dec-08 12:00N 36°57' W 076°20'2 3.9
2017-Dec-08 11:30N 36°55' W 076°20'0 0.0
2017-Dec-08 11:00N 36°55' W 076°20'0 0.0
2017-Dec-08 10:29N 36°55' W 076°20'0 0.0
2017-Dec-08 09:59N 36°55' W 076°20'0 0.0
2017-Dec-08 09:29N 36°55' W 076°20'0 0.0
2017-Dec-08 08:59N 36°55' W 076°20'0 0.0
2017-Dec-08 08:29N 36°55' W 076°20'0 0.0
2017-Dec-08 07:59N 36°55' W 076°20'0 0.0
2017-Dec-08 07:29N 36°55' W 076°20'0 0.0
2017-Dec-08 06:59N 36°55' W 076°20'0 0.0
2017-Dec-08 06:29N 36°55' W 076°20'0 0.0
2017-Dec-08 05:59N 36°55' W 076°20'0 0.0
2017-Dec-08 05:29N 36°55' W 076°20'0 0.0
2017-Dec-08 04:59N 36°55' W 076°20'0 0.0
2017-Dec-08 04:29N 36°55' W 076°20'0 0.0
2017-Dec-08 03:56N 36°55' W 076°20'0 0.0
2017-Dec-08 03:23N 36°55' W 076°20'0 0.0
2017-Dec-08 02:57N 36°55' W 076°20'0 0.1
2017-Dec-08 02:30N 36°55' W 076°20'0 0.0
2017-Dec-08 02:00N 36°55' W 076°20'0 0.0
2017-Dec-08 01:30N 36°55' W 076°20'0 0.0
2017-Dec-08 01:00N 36°55' W 076°20'  

Dump ship's entire track history